Hlavní strana
METAR-TAF:

METAR-TAF

Letiště :

Decatur, Illinois, Spojené státy americké

zeměpisná šířka: 39-50-04N, zeměpisná délka: 088-51-56W, výška: 208 m

Aktuální stav počasí

Zpráva byla vytvořena před 16 minutami, v 09:54 UTC
Jihojihozápadní vítr 10 kt
Teplota 4°C
Vlhkost vzduchu 70%
Tlak 1015 hPa
Viditelnost: 16.1 km
Jasno

METAR: KDEC 230954Z AUTO 21010KT 10SM CLR 04/M01 A2998 RMK AO2 SLP154 T00441011

Čas: 05:10 (10:10 UTC)

Předpověď počasí

Zpráva byla vytvořena před 4 hodinami a 45 minutami, v 05:25 UTC
Předpověď platná od 23 v 06 UTC do 24 v 06 UTC
Západojihozápadní vítr 9 kt
Viditelnost: 10 km
Jasno
Od 23 v 1700 UTC
Jihojihozápadní vítr 15 kt s nárazy do 25 kt
Viditelnost: 10 km
Polojasno ve výšce 12000 ft
Oblačno až skoro zataženo ve výšce 25000 ft
Od 24 v 0100 UTC
Jihojihozápadní vítr 10 kt
Viditelnost: 10 km
Oblačno až skoro zataženo ve výšce 12000 ft

TAF: KDEC 230525Z 2306/2406 24009KT P6SM SKC FM231700 21015G25KT P6SM SCT120 BKN250 FM240100 21010KT P6SM BKN120

Stav a předpovědi počasí z více než 4 000 letišť (zprávy METAR a TAF).

Červené a žluté tečky na mapě představují dostupné meteorologické stanice.

Když kurzor umístíte na tečku, zobrazí se název stanice.

Pak kliknutím zobrazíte stav a předpověď počasí.

Chcete-li změnit mapu, kliknutím na zelené tlačítko se znaménkem +mapu přiblížíte, kliknutím na zelené tlačítko se znaménkem – mapu oddálíte a kliknutím na zelené šipky přejdete na sousední mapy.


METAR-TAF: